sensor_id;sensor_type;location;lat;lon;timestamp;P1;durP1;ratioP1;P2;durP2;ratioP2
22314;SDS011;11325;55.686;37.566;2024-02-21T00:01:41;11.55;;;6.70;;
22314;SDS011;11325;55.686;37.566;2024-02-21T00:04:09;11.78;;;6.40;;
22314;SDS011;11325;55.686;37.566;2024-02-21T00:06:37;12.23;;;6.37;;
22314;SDS011;11325;55.686;37.566;2024-02-21T00:09:05;11.53;;;6.70;;
22314;SDS011;11325;55.686;37.566;2024-02-21T00:11:34;12.47;;;6.85;;
22314;SDS011;11325;55.686;37.566;2024-02-21T00:14:02;10.93;;;6.95;;
22314;SDS011;11325;55.686;37.566;2024-02-21T00:16:30;14.47;;;7.97;;
22314;SDS011;11325;55.686;37.566;2024-02-21T00:18:58;14.05;;;7.55;;
22314;SDS011;11325;55.686;37.566;2024-02-21T00:21:26;11.35;;;7.30;;
22314;SDS011;11325;55.686;37.566;2024-02-21T00:23:54;11.03;;;6.35;;
22314;SDS011;11325;55.686;37.566;2024-02-21T00:26:22;14.73;;;6.92;;
22314;SDS011;11325;55.686;37.566;2024-02-21T00:28:50;12.47;;;7.17;;
22314;SDS011;11325;55.686;37.566;2024-02-21T00:31:18;16.05;;;7.65;;
22314;SDS011;11325;55.686;37.566;2024-02-21T00:33:47;15.20;;;6.87;;
22314;SDS011;11325;55.686;37.566;2024-02-21T00:36:15;16.95;;;7.05;;
22314;SDS011;11325;55.686;37.566;2024-02-21T00:38:43;12.37;;;6.70;;
22314;SDS011;11325;55.686;37.566;2024-02-21T00:41:12;13.50;;;6.67;;
22314;SDS011;11325;55.686;37.566;2024-02-21T00:43:40;11.28;;;7.50;;
22314;SDS011;11325;55.686;37.566;2024-02-21T00:46:09;12.37;;;6.85;;
22314;SDS011;11325;55.686;37.566;2024-02-21T00:48:37;14.25;;;6.37;;
22314;SDS011;11325;55.686;37.566;2024-02-21T00:51:05;12.03;;;6.65;;
22314;SDS011;11325;55.686;37.566;2024-02-21T00:53:33;13.60;;;7.20;;
22314;SDS011;11325;55.686;37.566;2024-02-21T00:56:03;11.88;;;7.08;;
22314;SDS011;11325;55.686;37.566;2024-02-21T00:58:32;13.75;;;7.00;;
22314;SDS011;11325;55.686;37.566;2024-02-21T01:01:00;13.08;;;7.08;;
22314;SDS011;11325;55.686;37.566;2024-02-21T01:03:29;11.55;;;7.03;;
22314;SDS011;11325;55.686;37.566;2024-02-21T01:05:58;14.05;;;6.72;;
22314;SDS011;11325;55.686;37.566;2024-02-21T01:08:26;11.70;;;7.50;;
22314;SDS011;11325;55.686;37.566;2024-02-21T01:10:54;11.48;;;6.55;;
22314;SDS011;11325;55.686;37.566;2024-02-21T01:13:23;16.67;;;7.08;;
22314;SDS011;11325;55.686;37.566;2024-02-21T01:15:51;12.23;;;7.35;;
22314;SDS011;11325;55.686;37.566;2024-02-21T01:18:19;11.85;;;7.12;;
22314;SDS011;11325;55.686;37.566;2024-02-21T01:20:47;13.38;;;7.05;;
22314;SDS011;11325;55.686;37.566;2024-02-21T01:23:15;12.58;;;7.83;;
22314;SDS011;11325;55.686;37.566;2024-02-21T01:25:43;15.28;;;8.00;;
22314;SDS011;11325;55.686;37.566;2024-02-21T01:28:11;12.78;;;7.75;;
22314;SDS011;11325;55.686;37.566;2024-02-21T01:30:40;16.95;;;8.40;;
22314;SDS011;11325;55.686;37.566;2024-02-21T01:33:08;12.70;;;7.47;;
22314;SDS011;11325;55.686;37.566;2024-02-21T01:35:36;12.15;;;7.12;;
22314;SDS011;11325;55.686;37.566;2024-02-21T01:38:04;12.65;;;7.20;;
22314;SDS011;11325;55.686;37.566;2024-02-21T01:40:33;15.00;;;6.80;;
22314;SDS011;11325;55.686;37.566;2024-02-21T01:43:01;12.95;;;6.92;;
22314;SDS011;11325;55.686;37.566;2024-02-21T01:45:29;13.32;;;6.83;;
22314;SDS011;11325;55.686;37.566;2024-02-21T01:47:57;13.40;;;6.75;;
22314;SDS011;11325;55.686;37.566;2024-02-21T01:50:25;16.02;;;7.78;;
22314;SDS011;11325;55.686;37.566;2024-02-21T01:52:53;13.38;;;6.67;;
22314;SDS011;11325;55.686;37.566;2024-02-21T01:55:22;12.28;;;6.80;;
22314;SDS011;11325;55.686;37.566;2024-02-21T01:57:50;16.20;;;8.18;;
22314;SDS011;11325;55.686;37.566;2024-02-21T02:00:19;17.82;;;7.47;;
22314;SDS011;11325;55.686;37.566;2024-02-21T02:02:48;11.08;;;7.10;;
22314;SDS011;11325;55.686;37.566;2024-02-21T02:05:16;14.43;;;7.45;;
22314;SDS011;11325;55.686;37.566;2024-02-21T02:07:46;14.68;;;6.78;;
22314;SDS011;11325;55.686;37.566;2024-02-21T02:10:14;14.33;;;7.67;;
22314;SDS011;11325;55.686;37.566;2024-02-21T02:12:44;12.50;;;6.47;;
22314;SDS011;11325;55.686;37.566;2024-02-21T02:15:12;14.45;;;7.33;;
22314;SDS011;11325;55.686;37.566;2024-02-21T02:17:40;13.85;;;7.40;;
22314;SDS011;11325;55.686;37.566;2024-02-21T02:20:08;16.00;;;8.18;;
22314;SDS011;11325;55.686;37.566;2024-02-21T02:22:36;16.95;;;7.90;;
22314;SDS011;11325;55.686;37.566;2024-02-21T02:25:05;15.72;;;7.80;;
22314;SDS011;11325;55.686;37.566;2024-02-21T02:27:40;15.53;;;7.85;;
22314;SDS011;11325;55.686;37.566;2024-02-21T02:30:03;12.18;;;7.10;;
22314;SDS011;11325;55.686;37.566;2024-02-21T02:32:31;16.48;;;7.97;;
22314;SDS011;11325;55.686;37.566;2024-02-21T02:34:59;16.52;;;7.65;;
22314;SDS011;11325;55.686;37.566;2024-02-21T02:37:29;13.70;;;7.72;;
22314;SDS011;11325;55.686;37.566;2024-02-21T02:39:57;13.25;;;7.25;;
22314;SDS011;11325;55.686;37.566;2024-02-21T02:42:25;15.38;;;7.33;;
22314;SDS011;11325;55.686;37.566;2024-02-21T02:44:53;11.03;;;7.05;;
22314;SDS011;11325;55.686;37.566;2024-02-21T02:47:21;14.83;;;8.03;;
22314;SDS011;11325;55.686;37.566;2024-02-21T02:49:49;12.37;;;6.72;;
22314;SDS011;11325;55.686;37.566;2024-02-21T02:52:18;13.38;;;6.50;;
22314;SDS011;11325;55.686;37.566;2024-02-21T02:54:47;14.80;;;6.97;;
22314;SDS011;11325;55.686;37.566;2024-02-21T02:57:16;18.00;;;8.30;;
22314;SDS011;11325;55.686;37.566;2024-02-21T02:59:48;14.60;;;7.20;;
22314;SDS011;11325;55.686;37.566;2024-02-21T03:02:16;21.85;;;8.25;;
22314;SDS011;11325;55.686;37.566;2024-02-21T03:04:44;17.12;;;8.25;;
22314;SDS011;11325;55.686;37.566;2024-02-21T03:07:14;17.75;;;8.45;;
22314;SDS011;11325;55.686;37.566;2024-02-21T03:09:42;13.65;;;7.55;;
22314;SDS011;11325;55.686;37.566;2024-02-21T03:12:11;14.80;;;7.42;;
22314;SDS011;11325;55.686;37.566;2024-02-21T03:14:39;15.28;;;7.62;;
22314;SDS011;11325;55.686;37.566;2024-02-21T03:17:07;19.35;;;8.58;;
22314;SDS011;11325;55.686;37.566;2024-02-21T03:19:36;18.67;;;9.08;;
22314;SDS011;11325;55.686;37.566;2024-02-21T03:22:04;17.17;;;8.20;;
22314;SDS011;11325;55.686;37.566;2024-02-21T03:24:33;11.95;;;6.83;;
22314;SDS011;11325;55.686;37.566;2024-02-21T03:27:01;17.75;;;9.20;;
22314;SDS011;11325;55.686;37.566;2024-02-21T03:29:29;15.53;;;8.58;;
22314;SDS011;11325;55.686;37.566;2024-02-21T03:31:57;20.37;;;9.40;;
22314;SDS011;11325;55.686;37.566;2024-02-21T03:34:26;20.20;;;9.08;;
22314;SDS011;11325;55.686;37.566;2024-02-21T03:36:54;16.07;;;8.88;;
22314;SDS011;11325;55.686;37.566;2024-02-21T03:39:22;16.40;;;8.38;;
22314;SDS011;11325;55.686;37.566;2024-02-21T03:41:50;18.48;;;8.68;;
22314;SDS011;11325;55.686;37.566;2024-02-21T03:44:18;16.12;;;8.75;;
22314;SDS011;11325;55.686;37.566;2024-02-21T03:46:47;18.23;;;9.28;;
22314;SDS011;11325;55.686;37.566;2024-02-21T03:49:15;16.90;;;8.63;;
22314;SDS011;11325;55.686;37.566;2024-02-21T03:51:43;14.07;;;8.10;;
22314;SDS011;11325;55.686;37.566;2024-02-21T03:54:11;14.18;;;8.43;;
22314;SDS011;11325;55.686;37.566;2024-02-21T03:56:39;18.27;;;9.30;;
22314;SDS011;11325;55.686;37.566;2024-02-21T03:59:07;16.27;;;8.83;;
22314;SDS011;11325;55.686;37.566;2024-02-21T04:01:36;15.58;;;8.28;;
22314;SDS011;11325;55.686;37.566;2024-02-21T04:04:04;17.02;;;8.70;;
22314;SDS011;11325;55.686;37.566;2024-02-21T04:06:32;19.77;;;9.35;;
22314;SDS011;11325;55.686;37.566;2024-02-21T04:09:00;16.48;;;8.80;;
22314;SDS011;11325;55.686;37.566;2024-02-21T04:11:28;20.92;;;9.85;;
22314;SDS011;11325;55.686;37.566;2024-02-21T04:13:57;20.75;;;8.98;;
22314;SDS011;11325;55.686;37.566;2024-02-21T04:16:25;15.43;;;8.35;;
22314;SDS011;11325;55.686;37.566;2024-02-21T04:18:54;18.10;;;8.95;;
22314;SDS011;11325;55.686;37.566;2024-02-21T04:21:22;16.65;;;8.55;;
22314;SDS011;11325;55.686;37.566;2024-02-21T04:23:51;16.42;;;7.85;;
22314;SDS011;11325;55.686;37.566;2024-02-21T04:26:19;18.57;;;9.08;;
22314;SDS011;11325;55.686;37.566;2024-02-21T04:28:47;24.10;;;8.15;;
22314;SDS011;11325;55.686;37.566;2024-02-21T04:31:15;18.32;;;8.75;;
22314;SDS011;11325;55.686;37.566;2024-02-21T04:33:43;15.90;;;8.15;;
22314;SDS011;11325;55.686;37.566;2024-02-21T04:36:11;19.17;;;8.93;;
22314;SDS011;11325;55.686;37.566;2024-02-21T04:38:39;17.30;;;8.88;;
22314;SDS011;11325;55.686;37.566;2024-02-21T04:41:08;20.17;;;8.45;;
22314;SDS011;11325;55.686;37.566;2024-02-21T04:43:36;14.43;;;8.23;;
22314;SDS011;11325;55.686;37.566;2024-02-21T04:46:05;16.30;;;7.97;;
22314;SDS011;11325;55.686;37.566;2024-02-21T04:48:33;18.10;;;8.88;;
22314;SDS011;11325;55.686;37.566;2024-02-21T04:51:01;16.48;;;8.63;;
22314;SDS011;11325;55.686;37.566;2024-02-21T04:53:29;20.50;;;9.18;;
22314;SDS011;11325;55.686;37.566;2024-02-21T04:55:57;19.85;;;10.30;;
22314;SDS011;11325;55.686;37.566;2024-02-21T04:58:25;19.00;;;9.33;;
22314;SDS011;11325;55.686;37.566;2024-02-21T05:00:53;17.35;;;8.65;;
22314;SDS011;11325;55.686;37.566;2024-02-21T05:03:22;18.42;;;8.58;;
22314;SDS011;11325;55.686;37.566;2024-02-21T05:05:50;21.02;;;8.88;;
22314;SDS011;11325;55.686;37.566;2024-02-21T05:08:18;15.88;;;8.50;;
22314;SDS011;11325;55.686;37.566;2024-02-21T05:10:46;20.23;;;8.45;;
22314;SDS011;11325;55.686;37.566;2024-02-21T05:13:14;22.62;;;9.53;;
22314;SDS011;11325;55.686;37.566;2024-02-21T05:15:42;18.05;;;9.23;;
22314;SDS011;11325;55.686;37.566;2024-02-21T05:18:11;17.32;;;8.83;;
22314;SDS011;11325;55.686;37.566;2024-02-21T05:20:39;18.07;;;8.83;;
22314;SDS011;11325;55.686;37.566;2024-02-21T05:23:08;13.48;;;8.08;;
22314;SDS011;11325;55.686;37.566;2024-02-21T05:25:36;21.30;;;9.35;;
22314;SDS011;11325;55.686;37.566;2024-02-21T05:28:04;18.12;;;8.40;;
22314;SDS011;11325;55.686;37.566;2024-02-21T05:30:33;19.52;;;8.40;;
22314;SDS011;11325;55.686;37.566;2024-02-21T05:33:05;39.18;;;9.68;;
22314;SDS011;11325;55.686;37.566;2024-02-21T05:35:33;17.80;;;9.90;;
22314;SDS011;11325;55.686;37.566;2024-02-21T05:38:02;23.67;;;10.15;;
22314;SDS011;11325;55.686;37.566;2024-02-21T05:40:33;18.00;;;9.15;;
22314;SDS011;11325;55.686;37.566;2024-02-21T05:43:01;14.40;;;7.78;;
22314;SDS011;11325;55.686;37.566;2024-02-21T05:45:29;17.65;;;8.48;;
22314;SDS011;11325;55.686;37.566;2024-02-21T05:47:57;17.50;;;9.08;;
22314;SDS011;11325;55.686;37.566;2024-02-21T05:50:26;19.30;;;8.70;;
22314;SDS011;11325;55.686;37.566;2024-02-21T05:52:55;15.48;;;8.90;;
22314;SDS011;11325;55.686;37.566;2024-02-21T05:55:23;18.87;;;9.45;;
22314;SDS011;11325;55.686;37.566;2024-02-21T05:57:55;16.07;;;9.20;;
22314;SDS011;11325;55.686;37.566;2024-02-21T06:00:24;14.83;;;8.18;;
22314;SDS011;11325;55.686;37.566;2024-02-21T06:02:52;16.67;;;9.70;;
22314;SDS011;11325;55.686;37.566;2024-02-21T06:05:20;17.95;;;8.73;;
22314;SDS011;11325;55.686;37.566;2024-02-21T06:07:48;19.87;;;9.85;;
22314;SDS011;11325;55.686;37.566;2024-02-21T06:10:16;17.55;;;9.68;;
22314;SDS011;11325;55.686;37.566;2024-02-21T06:12:44;17.98;;;8.13;;
22314;SDS011;11325;55.686;37.566;2024-02-21T06:15:12;16.65;;;8.83;;
22314;SDS011;11325;55.686;37.566;2024-02-21T06:17:41;19.07;;;9.13;;
22314;SDS011;11325;55.686;37.566;2024-02-21T06:20:09;19.12;;;9.33;;
22314;SDS011;11325;55.686;37.566;2024-02-21T06:22:37;13.85;;;7.97;;
22314;SDS011;11325;55.686;37.566;2024-02-21T06:25:05;16.02;;;8.25;;
22314;SDS011;11325;55.686;37.566;2024-02-21T06:27:33;15.83;;;8.43;;
22314;SDS011;11325;55.686;37.566;2024-02-21T06:30:01;18.48;;;8.63;;
22314;SDS011;11325;55.686;37.566;2024-02-21T06:32:30;19.80;;;9.23;;
22314;SDS011;11325;55.686;37.566;2024-02-21T06:34:59;13.93;;;8.63;;
22314;SDS011;11325;55.686;37.566;2024-02-21T06:37:30;22.67;;;9.18;;
22314;SDS011;11325;55.686;37.566;2024-02-21T06:39:59;16.77;;;8.78;;
22314;SDS011;11325;55.686;37.566;2024-02-21T06:42:28;17.05;;;9.43;;
22314;SDS011;11325;55.686;37.566;2024-02-21T06:44:57;17.00;;;9.28;;
22314;SDS011;11325;55.686;37.566;2024-02-21T06:47:25;17.27;;;9.40;;
22314;SDS011;11325;55.686;37.566;2024-02-21T06:49:53;20.20;;;9.25;;
22314;SDS011;11325;55.686;37.566;2024-02-21T06:52:23;22.40;;;9.08;;
22314;SDS011;11325;55.686;37.566;2024-02-21T06:54:52;15.30;;;9.05;;
22314;SDS011;11325;55.686;37.566;2024-02-21T06:57:20;23.10;;;9.83;;
22314;SDS011;11325;55.686;37.566;2024-02-21T06:59:48;23.35;;;9.85;;
22314;SDS011;11325;55.686;37.566;2024-02-21T07:02:17;18.40;;;9.75;;
22314;SDS011;11325;55.686;37.566;2024-02-21T07:04:45;15.75;;;9.28;;
22314;SDS011;11325;55.686;37.566;2024-02-21T07:07:13;20.82;;;8.80;;
22314;SDS011;11325;55.686;37.566;2024-02-21T07:09:41;14.80;;;7.58;;
22314;SDS011;11325;55.686;37.566;2024-02-21T07:12:11;20.52;;;9.53;;
22314;SDS011;11325;55.686;37.566;2024-02-21T07:14:39;20.75;;;8.75;;
22314;SDS011;11325;55.686;37.566;2024-02-21T07:17:07;23.12;;;9.63;;
22314;SDS011;11325;55.686;37.566;2024-02-21T07:19:35;15.55;;;9.08;;
22314;SDS011;11325;55.686;37.566;2024-02-21T07:22:04;18.75;;;9.28;;
22314;SDS011;11325;55.686;37.566;2024-02-21T07:24:32;20.05;;;8.78;;
22314;SDS011;11325;55.686;37.566;2024-02-21T07:27:00;14.65;;;8.48;;
22314;SDS011;11325;55.686;37.566;2024-02-21T07:29:30;17.95;;;8.78;;
22314;SDS011;11325;55.686;37.566;2024-02-21T07:31:59;18.70;;;9.70;;
22314;SDS011;11325;55.686;37.566;2024-02-21T07:34:27;21.60;;;9.25;;
22314;SDS011;11325;55.686;37.566;2024-02-21T07:36:55;18.23;;;8.03;;
22314;SDS011;11325;55.686;37.566;2024-02-21T07:39:23;18.92;;;8.98;;
22314;SDS011;11325;55.686;37.566;2024-02-21T07:41:51;20.57;;;9.60;;
22314;SDS011;11325;55.686;37.566;2024-02-21T07:44:20;15.90;;;9.03;;
22314;SDS011;11325;55.686;37.566;2024-02-21T07:46:48;17.35;;;9.55;;
22314;SDS011;11325;55.686;37.566;2024-02-21T07:49:16;18.37;;;8.80;;
22314;SDS011;11325;55.686;37.566;2024-02-21T07:51:44;18.77;;;9.05;;
22314;SDS011;11325;55.686;37.566;2024-02-21T07:54:13;17.05;;;9.13;;
22314;SDS011;11325;55.686;37.566;2024-02-21T07:56:41;22.45;;;10.20;;
22314;SDS011;11325;55.686;37.566;2024-02-21T07:59:09;18.35;;;8.95;;
22314;SDS011;11325;55.686;37.566;2024-02-21T08:01:38;22.80;;;9.95;;
22314;SDS011;11325;55.686;37.566;2024-02-21T08:04:06;21.75;;;10.05;;
22314;SDS011;11325;55.686;37.566;2024-02-21T08:06:34;15.43;;;8.75;;
22314;SDS011;11325;55.686;37.566;2024-02-21T08:09:02;17.05;;;8.40;;
22314;SDS011;11325;55.686;37.566;2024-02-21T08:11:30;19.00;;;9.75;;
22314;SDS011;11325;55.686;37.566;2024-02-21T08:13:59;18.20;;;8.90;;
22314;SDS011;11325;55.686;37.566;2024-02-21T08:16:27;19.85;;;10.32;;
22314;SDS011;11325;55.686;37.566;2024-02-21T08:18:55;17.07;;;9.23;;
22314;SDS011;11325;55.686;37.566;2024-02-21T08:21:25;19.17;;;8.45;;
22314;SDS011;11325;55.686;37.566;2024-02-21T08:23:53;21.42;;;9.45;;
22314;SDS011;11325;55.686;37.566;2024-02-21T08:26:21;18.42;;;9.38;;
22314;SDS011;11325;55.686;37.566;2024-02-21T08:28:49;19.23;;;9.68;;
22314;SDS011;11325;55.686;37.566;2024-02-21T08:31:19;18.55;;;9.80;;
22314;SDS011;11325;55.686;37.566;2024-02-21T08:33:47;34.63;;;10.25;;
22314;SDS011;11325;55.686;37.566;2024-02-21T08:36:19;15.93;;;9.03;;
22314;SDS011;11325;55.686;37.566;2024-02-21T08:38:47;17.48;;;9.35;;
22314;SDS011;11325;55.686;37.566;2024-02-21T08:41:16;21.90;;;9.35;;
22314;SDS011;11325;55.686;37.566;2024-02-21T08:43:45;21.12;;;9.10;;
22314;SDS011;11325;55.686;37.566;2024-02-21T08:46:13;21.62;;;10.25;;
22314;SDS011;11325;55.686;37.566;2024-02-21T08:48:42;19.87;;;10.28;;
22314;SDS011;11325;55.686;37.566;2024-02-21T08:51:12;19.50;;;9.08;;
22314;SDS011;11325;55.686;37.566;2024-02-21T08:53:41;20.62;;;10.13;;
22314;SDS011;11325;55.686;37.566;2024-02-21T08:56:09;18.05;;;9.98;;
22314;SDS011;11325;55.686;37.566;2024-02-21T08:58:37;20.85;;;10.30;;
22314;SDS011;11325;55.686;37.566;2024-02-21T09:01:05;16.55;;;9.03;;
22314;SDS011;11325;55.686;37.566;2024-02-21T09:03:38;18.25;;;9.35;;
22314;SDS011;11325;55.686;37.566;2024-02-21T09:06:07;17.27;;;9.20;;
22314;SDS011;11325;55.686;37.566;2024-02-21T09:08:35;22.73;;;9.60;;
22314;SDS011;11325;55.686;37.566;2024-02-21T09:11:06;20.12;;;9.15;;
22314;SDS011;11325;55.686;37.566;2024-02-21T09:13:36;21.00;;;9.73;;
22314;SDS011;11325;55.686;37.566;2024-02-21T09:16:04;22.30;;;9.20;;
22314;SDS011;11325;55.686;37.566;2024-02-21T09:18:33;19.12;;;8.38;;
22314;SDS011;11325;55.686;37.566;2024-02-21T09:21:01;18.95;;;9.08;;
22314;SDS011;11325;55.686;37.566;2024-02-21T09:23:30;17.82;;;8.95;;
22314;SDS011;11325;55.686;37.566;2024-02-21T09:25:59;16.95;;;9.23;;
22314;SDS011;11325;55.686;37.566;2024-02-21T09:28:28;18.42;;;9.60;;
22314;SDS011;11325;55.686;37.566;2024-02-21T09:30:57;17.87;;;8.50;;
22314;SDS011;11325;55.686;37.566;2024-02-21T09:33:25;22.58;;;9.05;;
22314;SDS011;11325;55.686;37.566;2024-02-21T09:35:53;18.55;;;9.20;;
22314;SDS011;11325;55.686;37.566;2024-02-21T09:38:22;23.07;;;9.83;;
22314;SDS011;11325;55.686;37.566;2024-02-21T09:43:15;20.48;;;10.60;;
22314;SDS011;11325;55.686;37.566;2024-02-21T09:45:45;18.87;;;9.35;;
22314;SDS011;11325;55.686;37.566;2024-02-21T09:50:44;18.98;;;9.50;;
22314;SDS011;11325;55.686;37.566;2024-02-21T09:53:13;18.55;;;10.10;;
22314;SDS011;11325;55.686;37.566;2024-02-21T09:55:43;18.37;;;9.33;;
22314;SDS011;11325;55.686;37.566;2024-02-21T09:58:11;20.00;;;10.10;;
22314;SDS011;11325;55.686;37.566;2024-02-21T10:00:40;21.70;;;9.58;;
22314;SDS011;11325;55.686;37.566;2024-02-21T10:03:08;19.98;;;8.90;;
22314;SDS011;11325;55.686;37.566;2024-02-21T10:05:37;18.65;;;8.55;;
22314;SDS011;11325;55.686;37.566;2024-02-21T10:08:06;18.32;;;9.53;;
22314;SDS011;11325;55.686;37.566;2024-02-21T10:10:44;21.23;;;9.35;;
22314;SDS011;11325;55.686;37.566;2024-02-21T10:13:04;22.02;;;9.53;;
22314;SDS011;11325;55.686;37.566;2024-02-21T10:15:32;21.42;;;9.93;;
22314;SDS011;11325;55.686;37.566;2024-02-21T10:18:00;18.10;;;9.50;;
22314;SDS011;11325;55.686;37.566;2024-02-21T10:20:30;21.17;;;10.30;;
22314;SDS011;11325;55.686;37.566;2024-02-21T10:23:05;17.37;;;8.18;;
22314;SDS011;11325;55.686;37.566;2024-02-21T10:25:36;30.30;;;10.13;;
22314;SDS011;11325;55.686;37.566;2024-02-21T10:28:11;20.25;;;8.98;;
22314;SDS011;11325;55.686;37.566;2024-02-21T10:30:49;19.10;;;7.65;;
22314;SDS011;11325;55.686;37.566;2024-02-21T10:33:09;20.95;;;9.35;;
22314;SDS011;11325;55.686;37.566;2024-02-21T10:35:37;21.90;;;9.05;;
22314;SDS011;11325;55.686;37.566;2024-02-21T10:38:05;16.40;;;8.75;;
22314;SDS011;11325;55.686;37.566;2024-02-21T10:40:33;19.98;;;9.65;;
22314;SDS011;11325;55.686;37.566;2024-02-21T10:43:01;14.60;;;8.10;;
22314;SDS011;11325;55.686;37.566;2024-02-21T10:45:31;19.75;;;9.33;;
22314;SDS011;11325;55.686;37.566;2024-02-21T10:48:01;17.27;;;8.55;;
22314;SDS011;11325;55.686;37.566;2024-02-21T10:50:30;18.67;;;8.60;;
22314;SDS011;11325;55.686;37.566;2024-02-21T10:53:07;18.50;;;8.90;;
22314;SDS011;11325;55.686;37.566;2024-02-21T10:55:35;19.05;;;8.08;;
22314;SDS011;11325;55.686;37.566;2024-02-21T10:58:02;18.67;;;9.73;;
22314;SDS011;11325;55.686;37.566;2024-02-21T11:00:30;18.65;;;8.93;;
22314;SDS011;11325;55.686;37.566;2024-02-21T11:02:59;16.02;;;8.98;;
22314;SDS011;11325;55.686;37.566;2024-02-21T11:05:27;16.70;;;8.13;;
22314;SDS011;11325;55.686;37.566;2024-02-21T11:07:56;17.62;;;8.00;;
22314;SDS011;11325;55.686;37.566;2024-02-21T11:10:25;18.42;;;8.98;;
22314;SDS011;11325;55.686;37.566;2024-02-21T11:13:04;16.48;;;8.20;;
22314;SDS011;11325;55.686;37.566;2024-02-21T11:15:27;19.17;;;8.93;;
22314;SDS011;11325;55.686;37.566;2024-02-21T11:17:55;20.48;;;8.60;;
22314;SDS011;11325;55.686;37.566;2024-02-21T11:20:33;13.90;;;7.60;;
22314;SDS011;11325;55.686;37.566;2024-02-21T11:23:03;14.90;;;8.00;;
22314;SDS011;11325;55.686;37.566;2024-02-21T11:25:32;14.38;;;7.97;;
22314;SDS011;11325;55.686;37.566;2024-02-21T11:28:01;15.10;;;7.75;;
22314;SDS011;11325;55.686;37.566;2024-02-21T11:30:30;18.10;;;9.15;;
22314;SDS011;11325;55.686;37.566;2024-02-21T11:33:00;17.37;;;8.48;;
22314;SDS011;11325;55.686;37.566;2024-02-21T11:35:33;12.15;;;7.03;;
22314;SDS011;11325;55.686;37.566;2024-02-21T11:38:07;12.30;;;7.30;;
22314;SDS011;11325;55.686;37.566;2024-02-21T11:40:38;12.82;;;7.33;;
22314;SDS011;11325;55.686;37.566;2024-02-21T11:43:08;18.82;;;8.13;;
22314;SDS011;11325;55.686;37.566;2024-02-21T11:45:36;15.23;;;8.40;;
22314;SDS011;11325;55.686;37.566;2024-02-21T11:48:05;14.38;;;8.03;;
22314;SDS011;11325;55.686;37.566;2024-02-21T11:50:34;13.08;;;6.90;;
22314;SDS011;11325;55.686;37.566;2024-02-21T11:53:04;14.75;;;7.78;;
22314;SDS011;11325;55.686;37.566;2024-02-21T11:55:32;18.15;;;8.00;;
22314;SDS011;11325;55.686;37.566;2024-02-21T11:58:01;15.58;;;7.50;;
22314;SDS011;11325;55.686;37.566;2024-02-21T12:00:30;15.32;;;7.10;;
22314;SDS011;11325;55.686;37.566;2024-02-21T12:02:58;17.52;;;7.67;;
22314;SDS011;11325;55.686;37.566;2024-02-21T12:05:28;12.95;;;7.28;;
22314;SDS011;11325;55.686;37.566;2024-02-21T12:07:56;14.58;;;8.18;;
22314;SDS011;11325;55.686;37.566;2024-02-21T12:10:28;15.88;;;7.25;;
22314;SDS011;11325;55.686;37.566;2024-02-21T12:13:06;17.62;;;8.08;;
22314;SDS011;11325;55.686;37.566;2024-02-21T12:15:35;12.93;;;7.53;;
22314;SDS011;11325;55.686;37.566;2024-02-21T12:18:03;14.70;;;7.25;;
22314;SDS011;11325;55.686;37.566;2024-02-21T12:20:33;19.87;;;8.63;;
22314;SDS011;11325;55.686;37.566;2024-02-21T12:23:03;21.77;;;8.85;;
22314;SDS011;11325;55.686;37.566;2024-02-21T12:25:31;17.50;;;9.40;;
22314;SDS011;11325;55.686;37.566;2024-02-21T12:28:01;18.10;;;8.13;;
22314;SDS011;11325;55.686;37.566;2024-02-21T12:30:31;18.67;;;8.05;;
22314;SDS011;11325;55.686;37.566;2024-02-21T12:33:00;16.95;;;7.40;;
22314;SDS011;11325;55.686;37.566;2024-02-21T12:35:29;15.48;;;8.10;;
22314;SDS011;11325;55.686;37.566;2024-02-21T12:37:58;13.83;;;8.18;;
22314;SDS011;11325;55.686;37.566;2024-02-21T12:40:27;15.78;;;8.23;;
22314;SDS011;11325;55.686;37.566;2024-02-21T12:42:57;16.85;;;8.43;;
22314;SDS011;11325;55.686;37.566;2024-02-21T12:45:25;13.35;;;7.22;;
22314;SDS011;11325;55.686;37.566;2024-02-21T12:47:54;16.27;;;8.65;;
22314;SDS011;11325;55.686;37.566;2024-02-21T12:50:23;16.67;;;7.85;;
22314;SDS011;11325;55.686;37.566;2024-02-21T12:52:51;15.90;;;8.13;;
22314;SDS011;11325;55.686;37.566;2024-02-21T12:55:19;12.93;;;7.67;;
22314;SDS011;11325;55.686;37.566;2024-02-21T12:57:47;15.60;;;8.80;;
22314;SDS011;11325;55.686;37.566;2024-02-21T13:00:16;17.87;;;8.30;;
22314;SDS011;11325;55.686;37.566;2024-02-21T13:02:44;15.20;;;7.87;;
22314;SDS011;11325;55.686;37.566;2024-02-21T13:05:13;16.90;;;7.65;;
22314;SDS011;11325;55.686;37.566;2024-02-21T13:07:42;14.33;;;7.12;;
22314;SDS011;11325;55.686;37.566;2024-02-21T13:10:10;13.78;;;7.12;;
22314;SDS011;11325;55.686;37.566;2024-02-21T13:12:38;11.73;;;7.17;;
22314;SDS011;11325;55.686;37.566;2024-02-21T13:17:34;14.15;;;8.00;;
22314;SDS011;11325;55.686;37.566;2024-02-21T13:20:03;18.82;;;7.55;;
22314;SDS011;11325;55.686;37.566;2024-02-21T13:22:31;14.90;;;7.17;;
22314;SDS011;11325;55.686;37.566;2024-02-21T13:25:00;12.85;;;6.78;;
22314;SDS011;11325;55.686;37.566;2024-02-21T13:27:29;15.88;;;7.05;;
22314;SDS011;11325;55.686;37.566;2024-02-21T13:29:57;14.05;;;7.60;;
22314;SDS011;11325;55.686;37.566;2024-02-21T13:32:26;13.03;;;7.72;;
22314;SDS011;11325;55.686;37.566;2024-02-21T13:34:54;13.72;;;7.08;;
22314;SDS011;11325;55.686;37.566;2024-02-21T13:37:23;17.07;;;7.55;;
22314;SDS011;11325;55.686;37.566;2024-02-21T13:39:52;17.48;;;7.08;;
22314;SDS011;11325;55.686;37.566;2024-02-21T13:42:34;16.82;;;7.80;;
22314;SDS011;11325;55.686;37.566;2024-02-21T13:45:36;15.38;;;7.15;;
22314;SDS011;11325;55.686;37.566;2024-02-21T13:48:06;16.87;;;7.30;;
22314;SDS011;11325;55.686;37.566;2024-02-21T13:50:37;13.53;;;7.65;;
22314;SDS011;11325;55.686;37.566;2024-02-21T13:53:07;15.63;;;7.42;;
22314;SDS011;11325;55.686;37.566;2024-02-21T13:55:37;14.70;;;7.78;;
22314;SDS011;11325;55.686;37.566;2024-02-21T13:58:05;14.83;;;8.23;;
22314;SDS011;11325;55.686;37.566;2024-02-21T14:00:33;17.60;;;8.68;;
22314;SDS011;11325;55.686;37.566;2024-02-21T14:03:03;16.73;;;7.83;;
22314;SDS011;11325;55.686;37.566;2024-02-21T14:05:31;16.73;;;8.08;;
22314;SDS011;11325;55.686;37.566;2024-02-21T14:08:00;15.70;;;7.42;;
22314;SDS011;11325;55.686;37.566;2024-02-21T14:10:28;17.80;;;8.73;;
22314;SDS011;11325;55.686;37.566;2024-02-21T14:12:56;25.43;;;8.35;;
22314;SDS011;11325;55.686;37.566;2024-02-21T14:15:24;23.10;;;8.00;;
22314;SDS011;11325;55.686;37.566;2024-02-21T14:17:53;15.30;;;7.45;;
22314;SDS011;11325;55.686;37.566;2024-02-21T14:20:27;16.70;;;8.45;;
22314;SDS011;11325;55.686;37.566;2024-02-21T14:22:52;15.80;;;8.58;;
22314;SDS011;11325;55.686;37.566;2024-02-21T14:25:21;15.25;;;8.78;;
22314;SDS011;11325;55.686;37.566;2024-02-21T14:27:49;14.90;;;8.23;;
22314;SDS011;11325;55.686;37.566;2024-02-21T14:30:18;17.27;;;7.85;;
22314;SDS011;11325;55.686;37.566;2024-02-21T14:32:46;14.60;;;8.70;;
22314;SDS011;11325;55.686;37.566;2024-02-21T14:35:18;17.48;;;7.80;;
22314;SDS011;11325;55.686;37.566;2024-02-21T14:37:47;19.55;;;7.95;;